sensor_id;sensor_type;location;lat;lon;timestamp;temperature;humidity
37285;DHT22;23172;53.550;9.964;2023-08-17T00:01:38;23.10;63.90
37285;DHT22;23172;53.550;9.964;2023-08-17T00:06:40;23.00;64.20
37285;DHT22;23172;53.550;9.964;2023-08-17T00:11:43;23.00;64.50
37285;DHT22;23172;53.550;9.964;2023-08-17T00:16:45;23.00;64.60
37285;DHT22;23172;53.550;9.964;2023-08-17T00:21:47;22.90;65.10
37285;DHT22;23172;53.550;9.964;2023-08-17T00:26:50;22.90;65.30
37285;DHT22;23172;53.550;9.964;2023-08-17T00:31:52;22.90;65.40
37285;DHT22;23172;53.550;9.964;2023-08-17T00:36:54;22.80;65.70
37285;DHT22;23172;53.550;9.964;2023-08-17T00:41:57;22.80;65.80
37285;DHT22;23172;53.550;9.964;2023-08-17T00:46:59;22.80;66.20
37285;DHT22;23172;53.550;9.964;2023-08-17T00:52:02;22.80;66.30
37285;DHT22;23172;53.550;9.964;2023-08-17T00:57:07;22.80;66.50
37285;DHT22;23172;53.550;9.964;2023-08-17T01:02:10;22.80;66.60
37285;DHT22;23172;53.550;9.964;2023-08-17T01:07:12;22.70;66.70
37285;DHT22;23172;53.550;9.964;2023-08-17T01:12:21;22.70;66.90
37285;DHT22;23172;53.550;9.964;2023-08-17T01:17:30;22.60;66.80
37285;DHT22;23172;53.550;9.964;2023-08-17T01:22:35;22.60;66.90
37285;DHT22;23172;53.550;9.964;2023-08-17T01:27:42;22.50;66.90
37285;DHT22;23172;53.550;9.964;2023-08-17T01:32:49;22.50;67.20
37285;DHT22;23172;53.550;9.964;2023-08-17T01:37:53;22.50;67.60
37285;DHT22;23172;53.550;9.964;2023-08-17T01:42:57;22.50;67.50
37285;DHT22;23172;53.550;9.964;2023-08-17T01:47:59;22.60;67.50
37285;DHT22;23172;53.550;9.964;2023-08-17T01:53:01;22.50;67.40
37285;DHT22;23172;53.550;9.964;2023-08-17T01:58:05;22.50;67.70
37285;DHT22;23172;53.550;9.964;2023-08-17T02:03:06;22.50;67.80
37285;DHT22;23172;53.550;9.964;2023-08-17T02:08:08;22.50;67.80
37285;DHT22;23172;53.550;9.964;2023-08-17T02:13:11;22.50;68.00
37285;DHT22;23172;53.550;9.964;2023-08-17T02:18:14;22.50;68.00
37285;DHT22;23172;53.550;9.964;2023-08-17T02:23:16;22.40;68.20
37285;DHT22;23172;53.550;9.964;2023-08-17T02:28:19;22.40;68.50
37285;DHT22;23172;53.550;9.964;2023-08-17T02:33:21;22.30;68.90
37285;DHT22;23172;53.550;9.964;2023-08-17T02:38:22;21.70;71.10
37285;DHT22;23172;53.550;9.964;2023-08-17T02:43:25;21.40;72.70
37285;DHT22;23172;53.550;9.964;2023-08-17T02:48:27;21.00;73.90
37285;DHT22;23172;53.550;9.964;2023-08-17T02:53:29;20.90;75.30
37285;DHT22;23172;53.550;9.964;2023-08-17T02:58:32;20.70;76.20
37285;DHT22;23172;53.550;9.964;2023-08-17T03:03:33;20.60;77.80
37285;DHT22;23172;53.550;9.964;2023-08-17T03:08:35;20.50;78.10
37285;DHT22;23172;53.550;9.964;2023-08-17T03:13:38;20.50;79.50
37285;DHT22;23172;53.550;9.964;2023-08-17T03:18:40;20.50;80.40
37285;DHT22;23172;53.550;9.964;2023-08-17T03:23:42;20.50;80.00
37285;DHT22;23172;53.550;9.964;2023-08-17T03:28:45;20.50;80.40
37285;DHT22;23172;53.550;9.964;2023-08-17T03:33:46;20.50;80.60
37285;DHT22;23172;53.550;9.964;2023-08-17T03:38:48;20.50;80.80
37285;DHT22;23172;53.550;9.964;2023-08-17T03:43:51;20.50;81.20
37285;DHT22;23172;53.550;9.964;2023-08-17T03:48:53;20.50;82.10
37285;DHT22;23172;53.550;9.964;2023-08-17T03:53:55;20.50;82.20
37285;DHT22;23172;53.550;9.964;2023-08-17T03:58:58;20.50;82.60
37285;DHT22;23172;53.550;9.964;2023-08-17T04:03:59;20.50;83.40
37285;DHT22;23172;53.550;9.964;2023-08-17T04:09:01;20.50;84.40
37285;DHT22;23172;53.550;9.964;2023-08-17T04:14:04;20.40;84.60
37285;DHT22;23172;53.550;9.964;2023-08-17T04:19:06;20.40;85.40
37285;DHT22;23172;53.550;9.964;2023-08-17T04:24:07;20.40;85.60
37285;DHT22;23172;53.550;9.964;2023-08-17T04:29:11;20.40;87.20
37285;DHT22;23172;53.550;9.964;2023-08-17T04:34:12;20.30;87.60
37285;DHT22;23172;53.550;9.964;2023-08-17T04:39:14;20.40;87.70
37285;DHT22;23172;53.550;9.964;2023-08-17T04:44:17;20.40;87.50
37285;DHT22;23172;53.550;9.964;2023-08-17T04:49:19;20.40;87.90
37285;DHT22;23172;53.550;9.964;2023-08-17T04:54:21;20.50;88.90
37285;DHT22;23172;53.550;9.964;2023-08-17T04:59:24;20.50;88.80
37285;DHT22;23172;53.550;9.964;2023-08-17T05:04:25;20.50;88.90
37285;DHT22;23172;53.550;9.964;2023-08-17T05:09:27;20.50;89.60
37285;DHT22;23172;53.550;9.964;2023-08-17T05:14:30;20.50;90.00
37285;DHT22;23172;53.550;9.964;2023-08-17T05:19:32;20.40;90.20
37285;DHT22;23172;53.550;9.964;2023-08-17T05:24:34;20.50;90.30
37285;DHT22;23172;53.550;9.964;2023-08-17T05:29:37;20.50;90.30
37285;DHT22;23172;53.550;9.964;2023-08-17T05:34:38;20.50;90.70
37285;DHT22;23172;53.550;9.964;2023-08-17T05:39:40;20.50;90.50
37285;DHT22;23172;53.550;9.964;2023-08-17T05:44:43;20.50;91.40
37285;DHT22;23172;53.550;9.964;2023-08-17T05:49:45;20.40;91.90
37285;DHT22;23172;53.550;9.964;2023-08-17T05:54:47;20.40;92.50
37285;DHT22;23172;53.550;9.964;2023-08-17T05:59:50;20.40;92.90
37285;DHT22;23172;53.550;9.964;2023-08-17T06:04:52;20.30;93.20
37285;DHT22;23172;53.550;9.964;2023-08-17T06:09:54;20.30;93.90
37285;DHT22;23172;53.550;9.964;2023-08-17T06:14:57;20.20;94.50
37285;DHT22;23172;53.550;9.964;2023-08-17T06:19:58;20.20;94.70
37285;DHT22;23172;53.550;9.964;2023-08-17T06:25:00;20.20;94.80
37285;DHT22;23172;53.550;9.964;2023-08-17T06:30:03;20.10;95.50
37285;DHT22;23172;53.550;9.964;2023-08-17T06:35:06;20.10;95.40
37285;DHT22;23172;53.550;9.964;2023-08-17T06:40:08;20.10;95.70
37285;DHT22;23172;53.550;9.964;2023-08-17T06:45:12;20.10;96.30
37285;DHT22;23172;53.550;9.964;2023-08-17T06:50:18;20.00;96.50
37285;DHT22;23172;53.550;9.964;2023-08-17T09:11:20;20.00;96.80
37285;DHT22;23172;53.550;9.964;2023-08-17T09:16:22;20.40;94.40
37285;DHT22;23172;53.550;9.964;2023-08-17T09:21:24;20.50;94.30
37285;DHT22;23172;53.550;9.964;2023-08-17T09:26:29;20.50;94.60
37285;DHT22;23172;53.550;9.964;2023-08-17T09:31:31;20.50;94.70
37285;DHT22;23172;53.550;9.964;2023-08-17T09:36:34;20.70;94.70
37285;DHT22;23172;53.550;9.964;2023-08-17T09:41:41;20.70;93.90
37285;DHT22;23172;53.550;9.964;2023-08-17T09:46:43;20.70;93.50
37285;DHT22;23172;53.550;9.964;2023-08-17T09:51:45;20.80;93.10
37285;DHT22;23172;53.550;9.964;2023-08-17T09:56:48;21.00;92.90
37285;DHT22;23172;53.550;9.964;2023-08-17T10:01:51;21.10;92.40
37285;DHT22;23172;53.550;9.964;2023-08-17T10:06:55;21.00;92.30
37285;DHT22;23172;53.550;9.964;2023-08-17T10:12:00;20.90;92.40
37285;DHT22;23172;53.550;9.964;2023-08-17T10:17:06;20.90;93.20
37285;DHT22;23172;53.550;9.964;2023-08-17T10:22:11;20.80;93.30
37285;DHT22;23172;53.550;9.964;2023-08-17T10:27:15;20.70;92.90
37285;DHT22;23172;53.550;9.964;2023-08-17T10:32:18;20.90;92.90
37285;DHT22;23172;53.550;9.964;2023-08-17T10:37:20;21.00;92.10
37285;DHT22;23172;53.550;9.964;2023-08-17T10:42:33;21.00;91.00
37285;DHT22;23172;53.550;9.964;2023-08-17T10:47:36;21.00;91.80
37285;DHT22;23172;53.550;9.964;2023-08-17T10:52:38;21.20;91.40
37285;DHT22;23172;53.550;9.964;2023-08-17T10:57:42;21.30;90.80
37285;DHT22;23172;53.550;9.964;2023-08-17T11:02:44;21.30;91.10
37285;DHT22;23172;53.550;9.964;2023-08-17T11:07:46;21.40;91.10
37285;DHT22;23172;53.550;9.964;2023-08-17T11:12:49;21.30;91.10
37285;DHT22;23172;53.550;9.964;2023-08-17T11:17:50;21.20;91.50
37285;DHT22;23172;53.550;9.964;2023-08-17T11:22:52;21.00;92.00
37285;DHT22;23172;53.550;9.964;2023-08-17T11:27:55;20.80;93.10
37285;DHT22;23172;53.550;9.964;2023-08-17T11:32:57;20.60;93.50
37285;DHT22;23172;53.550;9.964;2023-08-17T11:37:59;20.40;94.40
37285;DHT22;23172;53.550;9.964;2023-08-17T11:43:02;20.30;94.50
37285;DHT22;23172;53.550;9.964;2023-08-17T11:48:05;20.20;94.80
37285;DHT22;23172;53.550;9.964;2023-08-17T11:53:07;20.20;95.00
37285;DHT22;23172;53.550;9.964;2023-08-17T11:58:10;20.20;95.40
37285;DHT22;23172;53.550;9.964;2023-08-17T12:03:23;20.20;95.90
37285;DHT22;23172;53.550;9.964;2023-08-17T12:08:25;20.10;96.70
37285;DHT22;23172;53.550;9.964;2023-08-17T12:13:31;20.30;96.60
37285;DHT22;23172;53.550;9.964;2023-08-17T12:18:34;20.40;96.40
37285;DHT22;23172;53.550;9.964;2023-08-17T12:23:36;20.40;96.10
37285;DHT22;23172;53.550;9.964;2023-08-17T12:28:39;20.50;96.50
37285;DHT22;23172;53.550;9.964;2023-08-17T12:33:42;20.60;96.70
37285;DHT22;23172;53.550;9.964;2023-08-17T12:38:44;20.70;96.30
37285;DHT22;23172;53.550;9.964;2023-08-17T12:43:48;20.80;96.20
37285;DHT22;23172;53.550;9.964;2023-08-17T12:48:51;20.80;96.60
37285;DHT22;23172;53.550;9.964;2023-08-17T12:53:53;20.90;96.00
37285;DHT22;23172;53.550;9.964;2023-08-17T12:58:54;20.90;95.20
37285;DHT22;23172;53.550;9.964;2023-08-17T13:03:57;20.90;95.60
37285;DHT22;23172;53.550;9.964;2023-08-17T13:08:59;20.90;95.70
37285;DHT22;23172;53.550;9.964;2023-08-17T13:14:01;20.90;95.70
37285;DHT22;23172;53.550;9.964;2023-08-17T13:19:04;20.80;95.40
37285;DHT22;23172;53.550;9.964;2023-08-17T13:24:06;20.80;95.80
37285;DHT22;23172;53.550;9.964;2023-08-17T13:29:07;20.70;95.00
37285;DHT22;23172;53.550;9.964;2023-08-17T13:34:11;20.50;93.90
37285;DHT22;23172;53.550;9.964;2023-08-17T13:39:12;20.20;94.60
37285;DHT22;23172;53.550;9.964;2023-08-17T13:44:15;20.20;94.10
37285;DHT22;23172;53.550;9.964;2023-08-17T13:49:18;20.40;94.30
37285;DHT22;23172;53.550;9.964;2023-08-17T13:54:19;20.80;93.80
37285;DHT22;23172;53.550;9.964;2023-08-17T13:59:21;21.20;92.80
37285;DHT22;23172;53.550;9.964;2023-08-17T14:04:24;21.50;91.90
37285;DHT22;23172;53.550;9.964;2023-08-17T14:09:26;21.60;90.90
37285;DHT22;23172;53.550;9.964;2023-08-17T14:14:28;21.60;90.60
37285;DHT22;23172;53.550;9.964;2023-08-17T14:19:31;21.20;91.40
37285;DHT22;23172;53.550;9.964;2023-08-17T14:24:32;21.30;91.30
37285;DHT22;23172;53.550;9.964;2023-08-17T14:29:34;21.30;91.10
37285;DHT22;23172;53.550;9.964;2023-08-17T14:34:37;21.20;91.80
37285;DHT22;23172;53.550;9.964;2023-08-17T14:39:39;21.10;91.70
37285;DHT22;23172;53.550;9.964;2023-08-17T14:44:40;20.80;92.50
37285;DHT22;23172;53.550;9.964;2023-08-17T14:49:43;20.50;93.00
37285;DHT22;23172;53.550;9.964;2023-08-17T14:54:45;20.50;93.00
37285;DHT22;23172;53.550;9.964;2023-08-17T14:59:47;20.50;93.40
37285;DHT22;23172;53.550;9.964;2023-08-17T15:04:50;20.40;93.50
37285;DHT22;23172;53.550;9.964;2023-08-17T15:09:52;20.40;93.90
37285;DHT22;23172;53.550;9.964;2023-08-17T15:14:54;20.20;94.10
37285;DHT22;23172;53.550;9.964;2023-08-17T15:19:57;20.20;94.40
37285;DHT22;23172;53.550;9.964;2023-08-17T15:24:59;20.20;94.50
37285;DHT22;23172;53.550;9.964;2023-08-17T15:30:00;20.20;94.70
37285;DHT22;23172;53.550;9.964;2023-08-17T15:35:04;20.20;94.60
37285;DHT22;23172;53.550;9.964;2023-08-17T15:40:06;20.10;94.80
37285;DHT22;23172;53.550;9.964;2023-08-17T15:45:08;20.10;95.00
37285;DHT22;23172;53.550;9.964;2023-08-17T15:50:11;20.10;95.00
37285;DHT22;23172;53.550;9.964;2023-08-17T15:55:13;20.10;94.80
37285;DHT22;23172;53.550;9.964;2023-08-17T16:00:15;20.10;95.10
37285;DHT22;23172;53.550;9.964;2023-08-17T16:05:18;20.00;95.10
37285;DHT22;23172;53.550;9.964;2023-08-17T16:10:20;20.10;95.50
37285;DHT22;23172;53.550;9.964;2023-08-17T16:15:21;20.10;95.50
37285;DHT22;23172;53.550;9.964;2023-08-17T16:20:24;20.10;95.70
37285;DHT22;23172;53.550;9.964;2023-08-17T16:25:29;20.10;96.00
37285;DHT22;23172;53.550;9.964;2023-08-17T16:30:32;20.10;96.10
37285;DHT22;23172;53.550;9.964;2023-08-17T16:35:37;20.00;96.20
37285;DHT22;23172;53.550;9.964;2023-08-17T16:40:38;20.10;96.10
37285;DHT22;23172;53.550;9.964;2023-08-17T16:45:40;20.10;96.00
37285;DHT22;23172;53.550;9.964;2023-08-17T16:50:43;20.10;95.60
37285;DHT22;23172;53.550;9.964;2023-08-17T16:55:45;20.10;95.30
37285;DHT22;23172;53.550;9.964;2023-08-17T17:00:47;20.00;95.60
37285;DHT22;23172;53.550;9.964;2023-08-17T17:05:50;20.00;95.60
37285;DHT22;23172;53.550;9.964;2023-08-17T17:10:51;20.00;95.60
37285;DHT22;23172;53.550;9.964;2023-08-17T17:15:53;20.00;95.80
37285;DHT22;23172;53.550;9.964;2023-08-17T17:20:56;20.00;95.90
37285;DHT22;23172;53.550;9.964;2023-08-17T17:25:58;20.00;95.70
37285;DHT22;23172;53.550;9.964;2023-08-17T17:31:00;19.90;96.00
37285;DHT22;23172;53.550;9.964;2023-08-17T17:36:03;19.90;96.10
37285;DHT22;23172;53.550;9.964;2023-08-17T17:41:05;19.90;96.40
37285;DHT22;23172;53.550;9.964;2023-08-17T17:46:07;19.80;96.50
37285;DHT22;23172;53.550;9.964;2023-08-17T17:51:10;19.80;96.60
37285;DHT22;23172;53.550;9.964;2023-08-17T17:56:12;19.80;96.90
37285;DHT22;23172;53.550;9.964;2023-08-17T18:01:14;19.80;96.80
37285;DHT22;23172;53.550;9.964;2023-08-17T18:06:18;19.80;96.80
37285;DHT22;23172;53.550;9.964;2023-08-17T18:11:20;19.60;97.20
37285;DHT22;23172;53.550;9.964;2023-08-17T18:16:22;19.60;97.30
37285;DHT22;23172;53.550;9.964;2023-08-17T18:21:25;19.50;97.50
37285;DHT22;23172;53.550;9.964;2023-08-17T18:26:30;19.50;97.80
37285;DHT22;23172;53.550;9.964;2023-08-17T18:31:32;19.50;98.10
37285;DHT22;23172;53.550;9.964;2023-08-17T18:36:35;19.40;98.30
37285;DHT22;23172;53.550;9.964;2023-08-17T18:41:36;19.30;98.90
37285;DHT22;23172;53.550;9.964;2023-08-17T23:03:23;19.30;98.80
37285;DHT22;23172;53.550;9.964;2023-08-17T23:08:24;19.80;96.70
37285;DHT22;23172;53.550;9.964;2023-08-17T23:13:26;19.80;96.80
